sensor_id;sensor_type;location;lat;lon;timestamp;pressure;altitude;pressure_sealevel;temperature
78225;BMP280;67498;53.650;10.090;2023-08-31T00:02:16;100371.28;;;14.54
78225;BMP280;67498;53.650;10.090;2023-08-31T00:04:41;100367.09;;;14.56
78225;BMP280;67498;53.650;10.090;2023-08-31T00:07:06;100373.03;;;14.57
78225;BMP280;67498;53.650;10.090;2023-08-31T00:09:32;100361.63;;;14.51
78225;BMP280;67498;53.650;10.090;2023-08-31T00:11:57;100369.53;;;14.51
78225;BMP280;67498;53.650;10.090;2023-08-31T00:14:25;100370.25;;;14.51
78225;BMP280;67498;53.650;10.090;2023-08-31T00:16:51;100377.28;;;14.54
78225;BMP280;67498;53.650;10.090;2023-08-31T00:19:17;100371.72;;;14.52
78225;BMP280;67498;53.650;10.090;2023-08-31T00:21:42;100368.34;;;14.52
78225;BMP280;67498;53.650;10.090;2023-08-31T00:24:08;100374.78;;;14.51
78225;BMP280;67498;53.650;10.090;2023-08-31T00:26:35;100370.69;;;14.50
78225;BMP280;67498;53.650;10.090;2023-08-31T00:29:04;100371.53;;;14.47
78225;BMP280;67498;53.650;10.090;2023-08-31T00:31:30;100375.50;;;14.51
78225;BMP280;67498;53.650;10.090;2023-08-31T00:33:56;100361.59;;;14.41
78225;BMP280;67498;53.650;10.090;2023-08-31T00:36:21;100365.28;;;14.44
78225;BMP280;67498;53.650;10.090;2023-08-31T00:38:46;100362.47;;;14.38
78225;BMP280;67498;53.650;10.090;2023-08-31T00:41:11;100369.03;;;14.43
78225;BMP280;67498;53.650;10.090;2023-08-31T00:43:37;100370.94;;;14.43
78225;BMP280;67498;53.650;10.090;2023-08-31T00:46:03;100369.91;;;14.40
78225;BMP280;67498;53.650;10.090;2023-08-31T00:48:29;100376.19;;;14.43
78225;BMP280;67498;53.650;10.090;2023-08-31T00:50:54;100378.22;;;14.38
78225;BMP280;67498;53.650;10.090;2023-08-31T00:53:20;100390.19;;;14.39
78225;BMP280;67498;53.650;10.090;2023-08-31T00:55:46;100379.78;;;14.36
78225;BMP280;67498;53.650;10.090;2023-08-31T00:58:12;100378.03;;;14.33
78225;BMP280;67498;53.650;10.090;2023-08-31T01:03:42;100378.91;;;14.30
78225;BMP280;67498;53.650;10.090;2023-08-31T01:06:45;100384.56;;;14.28
78225;BMP280;67498;53.650;10.090;2023-08-31T01:09:16;100375.34;;;14.24
78225;BMP280;67498;53.650;10.090;2023-08-31T01:11:54;100382.81;;;14.25
78225;BMP280;67498;53.650;10.090;2023-08-31T01:14:25;100378.81;;;14.21
78225;BMP280;67498;53.650;10.090;2023-08-31T01:16:53;100381.00;;;14.13
78225;BMP280;67498;53.650;10.090;2023-08-31T01:19:50;100381.00;;;14.13
78225;BMP280;67498;53.650;10.090;2023-08-31T01:22:32;100380.63;;;14.02
78225;BMP280;67498;53.650;10.090;2023-08-31T01:24:59;100387.13;;;13.97
78225;BMP280;67498;53.650;10.090;2023-08-31T01:27:30;100388.41;;;13.92
78225;BMP280;67498;53.650;10.090;2023-08-31T01:29:55;100398.91;;;13.92
78225;BMP280;67498;53.650;10.090;2023-08-31T01:32:21;100396.41;;;13.89
78225;BMP280;67498;53.650;10.090;2023-08-31T01:34:46;100401.03;;;13.85
78225;BMP280;67498;53.650;10.090;2023-08-31T01:37:17;100396.63;;;13.82
78225;BMP280;67498;53.650;10.090;2023-08-31T01:42:42;100394.97;;;13.75
78225;BMP280;67498;53.650;10.090;2023-08-31T01:45:10;100395.06;;;13.72
78225;BMP280;67498;53.650;10.090;2023-08-31T01:47:36;100394.47;;;13.67
78225;BMP280;67498;53.650;10.090;2023-08-31T01:50:01;100393.84;;;13.63
78225;BMP280;67498;53.650;10.090;2023-08-31T01:52:27;100398.44;;;13.59
78225;BMP280;67498;53.650;10.090;2023-08-31T01:54:52;100396.06;;;13.52
78225;BMP280;67498;53.650;10.090;2023-08-31T01:57:17;100401.00;;;13.50
78225;BMP280;67498;53.650;10.090;2023-08-31T01:59:43;100412.22;;;13.51
78225;BMP280;67498;53.650;10.090;2023-08-31T02:02:08;100416.00;;;13.50
78225;BMP280;67498;53.650;10.090;2023-08-31T02:04:33;100399.56;;;13.36
78225;BMP280;67498;53.650;10.090;2023-08-31T02:06:58;100409.84;;;13.43
78225;BMP280;67498;53.650;10.090;2023-08-31T02:09:24;100408.47;;;13.39
78225;BMP280;67498;53.650;10.090;2023-08-31T02:11:49;100412.34;;;13.34
78225;BMP280;67498;53.650;10.090;2023-08-31T02:14:14;100401.22;;;13.30
78225;BMP280;67498;53.650;10.090;2023-08-31T02:16:40;100399.56;;;13.24
78225;BMP280;67498;53.650;10.090;2023-08-31T02:19:05;100401.84;;;13.22
78225;BMP280;67498;53.650;10.090;2023-08-31T02:21:30;100414.16;;;13.25
78225;BMP280;67498;53.650;10.090;2023-08-31T02:23:55;100401.31;;;13.14
78225;BMP280;67498;53.650;10.090;2023-08-31T02:26:21;100406.34;;;13.21
78225;BMP280;67498;53.650;10.090;2023-08-31T02:28:46;100412.47;;;13.18
78225;BMP280;67498;53.650;10.090;2023-08-31T02:31:13;100413.31;;;13.15
78225;BMP280;67498;53.650;10.090;2023-08-31T02:33:39;100414.09;;;13.12
78225;BMP280;67498;53.650;10.090;2023-08-31T02:36:04;100406.91;;;13.03
78225;BMP280;67498;53.650;10.090;2023-08-31T02:38:29;100401.09;;;12.95
78225;BMP280;67498;53.650;10.090;2023-08-31T02:40:55;100410.66;;;13.02
78225;BMP280;67498;53.650;10.090;2023-08-31T02:43:20;100402.66;;;12.93
78225;BMP280;67498;53.650;10.090;2023-08-31T02:45:45;100401.88;;;12.96
78225;BMP280;67498;53.650;10.090;2023-08-31T02:48:10;100403.41;;;12.93
78225;BMP280;67498;53.650;10.090;2023-08-31T02:50:36;100403.19;;;12.88
78225;BMP280;67498;53.650;10.090;2023-08-31T02:53:01;100408.44;;;12.88
78225;BMP280;67498;53.650;10.090;2023-08-31T02:55:26;100407.06;;;12.83
78225;BMP280;67498;53.650;10.090;2023-08-31T02:57:53;100410.84;;;12.82
78225;BMP280;67498;53.650;10.090;2023-08-31T03:00:18;100410.91;;;12.79
78225;BMP280;67498;53.650;10.090;2023-08-31T03:02:49;100418.03;;;12.78
78225;BMP280;67498;53.650;10.090;2023-08-31T03:05:17;100422.16;;;12.79
78225;BMP280;67498;53.650;10.090;2023-08-31T03:07:42;100428.53;;;12.78
78225;BMP280;67498;53.650;10.090;2023-08-31T03:10:08;100431.59;;;12.77
78225;BMP280;67498;53.650;10.090;2023-08-31T03:12:33;100438.69;;;12.76
78225;BMP280;67498;53.650;10.090;2023-08-31T03:14:58;100425.28;;;12.74
78225;BMP280;67498;53.650;10.090;2023-08-31T03:17:24;100427.59;;;12.72
78225;BMP280;67498;53.650;10.090;2023-08-31T03:19:49;100425.59;;;12.63
78225;BMP280;67498;53.650;10.090;2023-08-31T03:22:14;100427.78;;;12.65
78225;BMP280;67498;53.650;10.090;2023-08-31T03:24:40;100427.88;;;12.61
78225;BMP280;67498;53.650;10.090;2023-08-31T03:27:05;100414.22;;;12.54
78225;BMP280;67498;53.650;10.090;2023-08-31T03:29:30;100422.41;;;12.56
78225;BMP280;67498;53.650;10.090;2023-08-31T03:31:57;100423.56;;;12.55
78225;BMP280;67498;53.650;10.090;2023-08-31T03:34:22;100435.19;;;12.54
78225;BMP280;67498;53.650;10.090;2023-08-31T03:36:48;100434.44;;;12.53
78225;BMP280;67498;53.650;10.090;2023-08-31T03:39:13;100425.28;;;12.45
78225;BMP280;67498;53.650;10.090;2023-08-31T03:41:38;100426.88;;;12.42
78225;BMP280;67498;53.650;10.090;2023-08-31T03:44:03;100428.63;;;12.45
78225;BMP280;67498;53.650;10.090;2023-08-31T03:46:29;100429.06;;;12.44
78225;BMP280;67498;53.650;10.090;2023-08-31T03:48:54;100435.44;;;12.43
78225;BMP280;67498;53.650;10.090;2023-08-31T03:51:19;100426.97;;;12.39
78225;BMP280;67498;53.650;10.090;2023-08-31T03:53:45;100434.41;;;12.40
78225;BMP280;67498;53.650;10.090;2023-08-31T03:56:10;100425.59;;;12.34
78225;BMP280;67498;53.650;10.090;2023-08-31T03:58:36;100442.34;;;12.37
78225;BMP280;67498;53.650;10.090;2023-08-31T04:01:01;100437.19;;;12.33
78225;BMP280;67498;53.650;10.090;2023-08-31T04:03:27;100438.34;;;12.32
78225;BMP280;67498;53.650;10.090;2023-08-31T04:05:55;100431.31;;;12.29
78225;BMP280;67498;53.650;10.090;2023-08-31T04:08:21;100443.59;;;12.32
78225;BMP280;67498;53.650;10.090;2023-08-31T04:10:46;100445.13;;;12.30
78225;BMP280;67498;53.650;10.090;2023-08-31T04:13:11;100448.91;;;12.29
78225;BMP280;67498;53.650;10.090;2023-08-31T04:15:37;100445.63;;;12.25
78225;BMP280;67498;53.650;10.090;2023-08-31T04:18:02;100446.78;;;12.23
78225;BMP280;67498;53.650;10.090;2023-08-31T04:20:27;100433.97;;;12.13
78225;BMP280;67498;53.650;10.090;2023-08-31T04:22:53;100453.25;;;12.19
78225;BMP280;67498;53.650;10.090;2023-08-31T04:25:18;100444.44;;;12.13
78225;BMP280;67498;53.650;10.090;2023-08-31T04:27:43;100453.66;;;12.17
78225;BMP280;67498;53.650;10.090;2023-08-31T04:30:11;100447.78;;;12.13
78225;BMP280;67498;53.650;10.090;2023-08-31T04:32:36;100440.50;;;12.05
78225;BMP280;67498;53.650;10.090;2023-08-31T04:35:05;100451.31;;;12.07
78225;BMP280;67498;53.650;10.090;2023-08-31T04:37:34;100450.97;;;12.05
78225;BMP280;67498;53.650;10.090;2023-08-31T04:40:00;100453.75;;;11.97
78225;BMP280;67498;53.650;10.090;2023-08-31T04:42:25;100464.88;;;12.02
78225;BMP280;67498;53.650;10.090;2023-08-31T04:44:50;100472.00;;;12.01
78225;BMP280;67498;53.650;10.090;2023-08-31T04:47:16;100473.88;;;12.01
78225;BMP280;67498;53.650;10.090;2023-08-31T04:49:41;100463.91;;;11.95
78225;BMP280;67498;53.650;10.090;2023-08-31T04:52:07;100471.75;;;11.95
78225;BMP280;67498;53.650;10.090;2023-08-31T04:54:33;100473.94;;;11.97
78225;BMP280;67498;53.650;10.090;2023-08-31T04:56:58;100488.03;;;12.03
78225;BMP280;67498;53.650;10.090;2023-08-31T04:59:24;100489.56;;;12.01
78225;BMP280;67498;53.650;10.090;2023-08-31T05:01:49;100491.72;;;12.06
78225;BMP280;67498;53.650;10.090;2023-08-31T05:04:14;100493.25;;;12.03
78225;BMP280;67498;53.650;10.090;2023-08-31T05:06:40;100505.44;;;12.10
78225;BMP280;67498;53.650;10.090;2023-08-31T05:09:05;100502.06;;;12.09
78225;BMP280;67498;53.650;10.090;2023-08-31T05:11:31;100508.44;;;12.08
78225;BMP280;67498;53.650;10.090;2023-08-31T05:13:56;100516.22;;;12.12
78225;BMP280;67498;53.650;10.090;2023-08-31T05:16:22;100512.88;;;12.11
78225;BMP280;67498;53.650;10.090;2023-08-31T05:18:48;100514.38;;;12.12
78225;BMP280;67498;53.650;10.090;2023-08-31T05:21:14;100507.72;;;12.08
78225;BMP280;67498;53.650;10.090;2023-08-31T05:23:39;100515.09;;;12.13
78225;BMP280;67498;53.650;10.090;2023-08-31T05:26:04;100519.88;;;12.14
78225;BMP280;67498;53.650;10.090;2023-08-31T05:28:29;100515.84;;;12.13
78225;BMP280;67498;53.650;10.090;2023-08-31T05:30:56;100531.03;;;12.18
78225;BMP280;67498;53.650;10.090;2023-08-31T05:33:22;100528.75;;;12.20
78225;BMP280;67498;53.650;10.090;2023-08-31T05:35:48;100535.03;;;12.23
78225;BMP280;67498;53.650;10.090;2023-08-31T05:38:14;100520.22;;;12.16
78225;BMP280;67498;53.650;10.090;2023-08-31T05:40:39;100538.72;;;12.26
78225;BMP280;67498;53.650;10.090;2023-08-31T05:43:04;100536.34;;;12.31
78225;BMP280;67498;53.650;10.090;2023-08-31T05:45:33;100535.59;;;12.31
78225;BMP280;67498;53.650;10.090;2023-08-31T05:47:59;100538.16;;;12.34
78225;BMP280;67498;53.650;10.090;2023-08-31T05:50:24;100533.88;;;12.40
78225;BMP280;67498;53.650;10.090;2023-08-31T05:52:50;100532.31;;;12.43
78225;BMP280;67498;53.650;10.090;2023-08-31T05:55:16;100533.31;;;12.49
78225;BMP280;67498;53.650;10.090;2023-08-31T05:57:41;100526.19;;;12.50
78225;BMP280;67498;53.650;10.090;2023-08-31T06:00:07;100531.34;;;12.53
78225;BMP280;67498;53.650;10.090;2023-08-31T06:02:33;100541.97;;;12.62
78225;BMP280;67498;53.650;10.090;2023-08-31T06:04:58;100530.41;;;12.60
78225;BMP280;67498;53.650;10.090;2023-08-31T06:07:24;100539.66;;;12.64
78225;BMP280;67498;53.650;10.090;2023-08-31T06:09:49;100554.06;;;12.73
78225;BMP280;67498;53.650;10.090;2023-08-31T06:12:14;100544.81;;;12.68
78225;BMP280;67498;53.650;10.090;2023-08-31T06:14:39;100553.88;;;12.80
78225;BMP280;67498;53.650;10.090;2023-08-31T06:17:05;100550.34;;;12.86
78225;BMP280;67498;53.650;10.090;2023-08-31T06:19:30;100558.03;;;12.93
78225;BMP280;67498;53.650;10.090;2023-08-31T06:21:55;100545.66;;;12.94
78225;BMP280;67498;53.650;10.090;2023-08-31T06:24:20;100544.31;;;13.02
78225;BMP280;67498;53.650;10.090;2023-08-31T06:26:46;100556.31;;;13.16
78225;BMP280;67498;53.650;10.090;2023-08-31T06:29:11;100550.22;;;13.19
78225;BMP280;67498;53.650;10.090;2023-08-31T06:31:36;100547.63;;;13.32
78225;BMP280;67498;53.650;10.090;2023-08-31T06:34:02;100553.88;;;13.89
78225;BMP280;67498;53.650;10.090;2023-08-31T06:36:29;100563.53;;;14.74
78225;BMP280;67498;53.650;10.090;2023-08-31T06:38:54;100563.13;;;15.69
78225;BMP280;67498;53.650;10.090;2023-08-31T06:41:20;100562.78;;;16.62
78225;BMP280;67498;53.650;10.090;2023-08-31T06:43:45;100547.00;;;17.05
78225;BMP280;67498;53.650;10.090;2023-08-31T06:46:11;100546.59;;;16.97
78225;BMP280;67498;53.650;10.090;2023-08-31T06:48:36;100554.25;;;16.67
78225;BMP280;67498;53.650;10.090;2023-08-31T06:51:01;100560.00;;;16.48
78225;BMP280;67498;53.650;10.090;2023-08-31T06:53:29;100552.09;;;16.29
78225;BMP280;67498;53.650;10.090;2023-08-31T06:55:54;100556.06;;;16.15
78225;BMP280;67498;53.650;10.090;2023-08-31T06:58:19;100563.66;;;16.13
78225;BMP280;67498;53.650;10.090;2023-08-31T07:00:45;100554.56;;;16.05
78225;BMP280;67498;53.650;10.090;2023-08-31T07:03:10;100552.94;;;15.99
78225;BMP280;67498;53.650;10.090;2023-08-31T07:05:42;100565.13;;;16.14
78225;BMP280;67498;53.650;10.090;2023-08-31T07:08:07;100561.75;;;16.14
78225;BMP280;67498;53.650;10.090;2023-08-31T07:10:33;100564.53;;;16.20
78225;BMP280;67498;53.650;10.090;2023-08-31T07:13:01;100573.63;;;16.37
78225;BMP280;67498;53.650;10.090;2023-08-31T07:15:26;100577.00;;;16.47
78225;BMP280;67498;53.650;10.090;2023-08-31T07:17:52;100566.59;;;16.43
78225;BMP280;67498;53.650;10.090;2023-08-31T07:20:17;100573.19;;;16.48
78225;BMP280;67498;53.650;10.090;2023-08-31T07:22:42;100574.78;;;16.54
78225;BMP280;67498;53.650;10.090;2023-08-31T07:25:08;100564.53;;;16.56
78225;BMP280;67498;53.650;10.090;2023-08-31T07:27:33;100569.63;;;16.60
78225;BMP280;67498;53.650;10.090;2023-08-31T07:29:58;100566.28;;;16.69
78225;BMP280;67498;53.650;10.090;2023-08-31T07:32:24;100563.91;;;16.80
78225;BMP280;67498;53.650;10.090;2023-08-31T07:34:49;100566.06;;;16.90
78225;BMP280;67498;53.650;10.090;2023-08-31T07:37:14;100563.72;;;17.11
78225;BMP280;67498;53.650;10.090;2023-08-31T07:39:39;100560.84;;;17.24
78225;BMP280;67498;53.650;10.090;2023-08-31T07:42:05;100566.94;;;17.39
78225;BMP280;67498;53.650;10.090;2023-08-31T07:44:30;100559.94;;;17.60
78225;BMP280;67498;53.650;10.090;2023-08-31T07:46:56;100562.66;;;17.75
78225;BMP280;67498;53.650;10.090;2023-08-31T07:49:21;100573.41;;;17.71
78225;BMP280;67498;53.650;10.090;2023-08-31T07:51:46;100569.53;;;17.48
78225;BMP280;67498;53.650;10.090;2023-08-31T07:54:19;100563.75;;;17.35
78225;BMP280;67498;53.650;10.090;2023-08-31T07:56:44;100561.22;;;17.40
78225;BMP280;67498;53.650;10.090;2023-08-31T07:59:10;100554.19;;;17.37
78225;BMP280;67498;53.650;10.090;2023-08-31T08:01:36;100562.72;;;17.32
78225;BMP280;67498;53.650;10.090;2023-08-31T08:04:01;100559.53;;;17.28
78225;BMP280;67498;53.650;10.090;2023-08-31T08:06:26;100561.44;;;17.28
78225;BMP280;67498;53.650;10.090;2023-08-31T08:08:51;100571.81;;;17.31
78225;BMP280;67498;53.650;10.090;2023-08-31T08:11:17;100574.31;;;17.35
78225;BMP280;67498;53.650;10.090;2023-08-31T08:13:42;100569.34;;;17.28
78225;BMP280;67498;53.650;10.090;2023-08-31T08:16:07;100565.72;;;17.25
78225;BMP280;67498;53.650;10.090;2023-08-31T08:18:34;100575.63;;;17.39
78225;BMP280;67498;53.650;10.090;2023-08-31T08:20:59;100576.56;;;17.51
78225;BMP280;67498;53.650;10.090;2023-08-31T08:23:24;100579.09;;;17.70
78225;BMP280;67498;53.650;10.090;2023-08-31T08:25:49;100586.06;;;18.06
78225;BMP280;67498;53.650;10.090;2023-08-31T08:28:15;100587.56;;;18.22
78225;BMP280;67498;53.650;10.090;2023-08-31T08:30:40;100588.41;;;18.04
78225;BMP280;67498;53.650;10.090;2023-08-31T08:33:05;100593.66;;;17.89
78225;BMP280;67498;53.650;10.090;2023-08-31T08:35:30;100589.09;;;17.89
78225;BMP280;67498;53.650;10.090;2023-08-31T08:37:56;100583.47;;;17.97
78225;BMP280;67498;53.650;10.090;2023-08-31T08:40:21;100590.41;;;17.94
78225;BMP280;67498;53.650;10.090;2023-08-31T08:42:47;100595.09;;;17.99
78225;BMP280;67498;53.650;10.090;2023-08-31T08:45:15;100593.84;;;18.09
78225;BMP280;67498;53.650;10.090;2023-08-31T08:47:42;100591.59;;;18.32
78225;BMP280;67498;53.650;10.090;2023-08-31T08:50:09;100594.88;;;18.41
78225;BMP280;67498;53.650;10.090;2023-08-31T08:52:35;100592.16;;;18.51
78225;BMP280;67498;53.650;10.090;2023-08-31T08:55:01;100595.16;;;18.58
78225;BMP280;67498;53.650;10.090;2023-08-31T08:57:27;100583.50;;;18.50
78225;BMP280;67498;53.650;10.090;2023-08-31T08:59:53;100588.78;;;18.80
78225;BMP280;67498;53.650;10.090;2023-08-31T09:02:18;100595.50;;;19.10
78225;BMP280;67498;53.650;10.090;2023-08-31T09:04:44;100585.13;;;19.07
78225;BMP280;67498;53.650;10.090;2023-08-31T09:07:09;100597.06;;;19.17
78225;BMP280;67498;53.650;10.090;2023-08-31T09:09:53;100587.97;;;19.38
78225;BMP280;67498;53.650;10.090;2023-08-31T09:12:22;100592.81;;;19.60
78225;BMP280;67498;53.650;10.090;2023-08-31T09:15:03;100597.91;;;19.43
78225;BMP280;67498;53.650;10.090;2023-08-31T09:17:40;100611.22;;;19.49
78225;BMP280;67498;53.650;10.090;2023-08-31T09:20:07;100612.84;;;19.26
78225;BMP280;67498;53.650;10.090;2023-08-31T09:22:33;100605.66;;;19.12
78225;BMP280;67498;53.650;10.090;2023-08-31T09:24:59;100611.13;;;18.93
78225;BMP280;67498;53.650;10.090;2023-08-31T09:27:24;100616.22;;;18.67
78225;BMP280;67498;53.650;10.090;2023-08-31T09:29:50;100619.63;;;18.53
78225;BMP280;67498;53.650;10.090;2023-08-31T09:32:18;100613.31;;;18.51
78225;BMP280;67498;53.650;10.090;2023-08-31T09:34:44;100619.97;;;18.61
78225;BMP280;67498;53.650;10.090;2023-08-31T09:37:10;100614.38;;;18.44
78225;BMP280;67498;53.650;10.090;2023-08-31T09:39:36;100623.38;;;18.23
78225;BMP280;67498;53.650;10.090;2023-08-31T09:42:02;100625.88;;;18.02
78225;BMP280;67498;53.650;10.090;2023-08-31T09:44:28;100623.22;;;17.78
78225;BMP280;67498;53.650;10.090;2023-08-31T09:46:53;100608.69;;;17.50
78225;BMP280;67498;53.650;10.090;2023-08-31T09:49:21;100611.38;;;17.31
78225;BMP280;67498;53.650;10.090;2023-08-31T09:51:48;100611.03;;;17.14
78225;BMP280;67498;53.650;10.090;2023-08-31T09:54:17;100625.25;;;17.08
78225;BMP280;67498;53.650;10.090;2023-08-31T09:56:44;100618.16;;;17.32
78225;BMP280;67498;53.650;10.090;2023-08-31T09:59:11;100610.38;;;17.71
78225;BMP280;67498;53.650;10.090;2023-08-31T10:01:37;100616.94;;;18.00
78225;BMP280;67498;53.650;10.090;2023-08-31T10:04:04;100613.78;;;18.25
78225;BMP280;67498;53.650;10.090;2023-08-31T10:06:31;100612.22;;;18.42
78225;BMP280;67498;53.650;10.090;2023-08-31T10:08:57;100598.72;;;18.70
78225;BMP280;67498;53.650;10.090;2023-08-31T10:11:24;100608.47;;;19.08
78225;BMP280;67498;53.650;10.090;2023-08-31T10:13:51;100602.00;;;19.44
78225;BMP280;67498;53.650;10.090;2023-08-31T10:16:17;100612.88;;;19.87
78225;BMP280;67498;53.650;10.090;2023-08-31T10:18:44;100629.69;;;20.05
78225;BMP280;67498;53.650;10.090;2023-08-31T10:21:09;100615.59;;;19.93
78225;BMP280;67498;53.650;10.090;2023-08-31T10:23:34;100615.19;;;19.80
78225;BMP280;67498;53.650;10.090;2023-08-31T10:26:01;100612.69;;;19.70
78225;BMP280;67498;53.650;10.090;2023-08-31T10:28:29;100613.22;;;19.74
78225;BMP280;67498;53.650;10.090;2023-08-31T10:31:01;100609.59;;;19.72
78225;BMP280;67498;53.650;10.090;2023-08-31T10:33:31;100613.66;;;19.73
78225;BMP280;67498;53.650;10.090;2023-08-31T10:35:57;100618.34;;;19.63
78225;BMP280;67498;53.650;10.090;2023-08-31T10:38:30;100615.72;;;19.43
78225;BMP280;67498;53.650;10.090;2023-08-31T10:43:52;100625.22;;;19.35
78225;BMP280;67498;53.650;10.090;2023-08-31T10:46:44;100609.47;;;19.46
78225;BMP280;67498;53.650;10.090;2023-08-31T10:51:39;100601.09;;;19.12
78225;BMP280;67498;53.650;10.090;2023-08-31T10:54:09;100616.25;;;18.97
78225;BMP280;67498;53.650;10.090;2023-08-31T10:59:21;100612.94;;;18.73
78225;BMP280;67498;53.650;10.090;2023-08-31T11:01:59;100615.44;;;18.76
78225;BMP280;67498;53.650;10.090;2023-08-31T11:04:27;100619.00;;;18.88
78225;BMP280;67498;53.650;10.090;2023-08-31T11:07:17;100613.69;;;19.03
78225;BMP280;67498;53.650;10.090;2023-08-31T11:09:44;100604.56;;;19.04
78225;BMP280;67498;53.650;10.090;2023-08-31T11:12:10;100615.16;;;19.04
78225;BMP280;67498;53.650;10.090;2023-08-31T11:14:36;100613.22;;;18.89
78225;BMP280;67498;53.650;10.090;2023-08-31T11:17:02;100623.94;;;18.80
78225;BMP280;67498;53.650;10.090;2023-08-31T11:19:29;100612.31;;;18.63
78225;BMP280;67498;53.650;10.090;2023-08-31T11:21:55;100624.91;;;18.68
78225;BMP280;67498;53.650;10.090;2023-08-31T11:24:21;100613.06;;;18.78
78225;BMP280;67498;53.650;10.090;2023-08-31T11:26:50;100607.84;;;18.84
78225;BMP280;67498;53.650;10.090;2023-08-31T11:29:15;100619.16;;;18.99
78225;BMP280;67498;53.650;10.090;2023-08-31T11:31:41;100613.31;;;19.10
78225;BMP280;67498;53.650;10.090;2023-08-31T11:34:06;100620.81;;;19.11
78225;BMP280;67498;53.650;10.090;2023-08-31T11:36:32;100617.59;;;19.07
78225;BMP280;67498;53.650;10.090;2023-08-31T11:38:58;100619.06;;;18.93
78225;BMP280;67498;53.650;10.090;2023-08-31T11:41:23;100622.66;;;18.90
78225;BMP280;67498;53.650;10.090;2023-08-31T11:43:49;100615.88;;;18.89
78225;BMP280;67498;53.650;10.090;2023-08-31T11:46:16;100619.53;;;19.07
78225;BMP280;67498;53.650;10.090;2023-08-31T11:48:41;100614.53;;;19.09
78225;BMP280;67498;53.650;10.090;2023-08-31T11:51:07;100621.81;;;18.99
78225;BMP280;67498;53.650;10.090;2023-08-31T11:53:32;100628.94;;;18.93
78225;BMP280;67498;53.650;10.090;2023-08-31T11:56:01;100630.47;;;18.85
78225;BMP280;67498;53.650;10.090;2023-08-31T11:58:27;100638.75;;;18.78
78225;BMP280;67498;53.650;10.090;2023-08-31T12:00:59;100635.13;;;18.75
78225;BMP280;67498;53.650;10.090;2023-08-31T12:03:25;100633.38;;;18.72
78225;BMP280;67498;53.650;10.090;2023-08-31T12:05:52;100648.91;;;18.64
78225;BMP280;67498;53.650;10.090;2023-08-31T12:08:24;100635.19;;;18.51
78225;BMP280;67498;53.650;10.090;2023-08-31T12:10:50;100644.94;;;18.45
78225;BMP280;67498;53.650;10.090;2023-08-31T12:13:16;100654.81;;;18.44
78225;BMP280;67498;53.650;10.090;2023-08-31T12:15:41;100646.31;;;18.40
78225;BMP280;67498;53.650;10.090;2023-08-31T12:18:10;100650.97;;;18.45
78225;BMP280;67498;53.650;10.090;2023-08-31T12:21:05;100652.69;;;18.49
78225;BMP280;67498;53.650;10.090;2023-08-31T12:23:31;100648.22;;;18.40
78225;BMP280;67498;53.650;10.090;2023-08-31T12:25:56;100656.41;;;18.42
78225;BMP280;67498;53.650;10.090;2023-08-31T12:28:23;100649.41;;;18.39
78225;BMP280;67498;53.650;10.090;2023-08-31T12:33:15;100659.78;;;18.66
78225;BMP280;67498;53.650;10.090;2023-08-31T12:35:41;100664.13;;;18.69
78225;BMP280;67498;53.650;10.090;2023-08-31T12:38:06;100661.13;;;18.62
78225;BMP280;67498;53.650;10.090;2023-08-31T12:40:32;100664.56;;;18.53
78225;BMP280;67498;53.650;10.090;2023-08-31T12:42:57;100665.28;;;18.39
78225;BMP280;67498;53.650;10.090;2023-08-31T12:45:22;100667.31;;;18.35
78225;BMP280;67498;53.650;10.090;2023-08-31T12:47:48;100676.50;;;18.25
78225;BMP280;67498;53.650;10.090;2023-08-31T12:50:13;100683.06;;;18.14
78225;BMP280;67498;53.650;10.090;2023-08-31T12:52:38;100692.97;;;18.05
78225;BMP280;67498;53.650;10.090;2023-08-31T12:55:14;100700.06;;;17.89
78225;BMP280;67498;53.650;10.090;2023-08-31T12:57:40;100698.69;;;17.70
78225;BMP280;67498;53.650;10.090;2023-08-31T13:00:07;100704.59;;;17.56
78225;BMP280;67498;53.650;10.090;2023-08-31T13:02:41;100695.28;;;17.36
78225;BMP280;67498;53.650;10.090;2023-08-31T13:05:07;100712.00;;;17.33
78225;BMP280;67498;53.650;10.090;2023-08-31T13:07:38;100709.50;;;17.30
78225;BMP280;67498;53.650;10.090;2023-08-31T13:10:04;100711.69;;;17.22
78225;BMP280;67498;53.650;10.090;2023-08-31T13:12:30;100703.66;;;17.16
78225;BMP280;67498;53.650;10.090;2023-08-31T13:14:56;100700.91;;;17.11
78225;BMP280;67498;53.650;10.090;2023-08-31T13:17:22;100702.47;;;17.08
78225;BMP280;67498;53.650;10.090;2023-08-31T13:19:52;100691.50;;;17.01
78225;BMP280;67498;53.650;10.090;2023-08-31T13:22:17;100689.16;;;16.94
78225;BMP280;67498;53.650;10.090;2023-08-31T13:24:42;100695.16;;;17.03
78225;BMP280;67498;53.650;10.090;2023-08-31T13:27:07;100693.13;;;16.98
78225;BMP280;67498;53.650;10.090;2023-08-31T13:29:33;100701.19;;;17.04
78225;BMP280;67498;53.650;10.090;2023-08-31T13:31:58;100698.97;;;17.02
78225;BMP280;67498;53.650;10.090;2023-08-31T13:34:23;100697.06;;;17.03
78225;BMP280;67498;53.650;10.090;2023-08-31T13:36:48;100698.38;;;17.16
78225;BMP280;67498;53.650;10.090;2023-08-31T13:39:14;100693.53;;;17.24
78225;BMP280;67498;53.650;10.090;2023-08-31T13:41:39;100698.16;;;17.48
78225;BMP280;67498;53.650;10.090;2023-08-31T13:44:05;100699.28;;;17.65
78225;BMP280;67498;53.650;10.090;2023-08-31T13:46:31;100688.88;;;17.71
78225;BMP280;67498;53.650;10.090;2023-08-31T13:48:56;100684.88;;;17.75
78225;BMP280;67498;53.650;10.090;2023-08-31T13:51:22;100681.16;;;17.82
78225;BMP280;67498;53.650;10.090;2023-08-31T13:53:47;100676.34;;;17.80
78225;BMP280;67498;53.650;10.090;2023-08-31T13:56:12;100691.38;;;17.98
78225;BMP280;67498;53.650;10.090;2023-08-31T13:58:38;100685.34;;;18.22